Decoded Metar for LZIB (BRATISLAVA in SLOVAKIA) (IATA:BTS) | Meteo·Mobile Aviation Weather
aviador You're here:

LZIB Decoded Metar

BRATISLAVA in SLOVAKIA
Report Time2019-07-16 10:00:00
UTC Time2019-07-16 10:10:41
Flight Rules vfr VFR
Wind290° at 10 kt
W.Decomp.*RWY 31: 9.2 kt HW 3.9 kt LCW
RWY 22: 3.9 kt HW 9.2 kt RCW
Visibility9999 m
Phenomena:N/A
Clouds:Few 049 Hf
Scattered 071 Hf
Expected CloudBase > 4,800 ft AGL from Temp-Dew spread
CeilingNone
Temp24°C (ISA +10)
Dew Point12°C (47% RH)
AAT21.0°C
QNH1013 hPa
Density Alt1,775 ft
Elevation440 ft
Report Wrong Elevation
Raw Report
METAR LZIB 161000Z 29010KT 250V330 9999 FEW049 SCT071 24/12 Q1013 NOSIG=

Extra information for LZIB:More info

Metar Taf Metar & Taf Last 4 Metars F.Rules Stats Wind Profile Meteogram Temp Stats Airport Information Weather charts Add Link Nearby VenuesMetar ALERT Operation Metar Decoded Social comments